sensor_id;sensor_type;location;lat;lon;timestamp;temperature;humidity
53962;DHT22;39868;53.398;6.564;2023-06-10T00:00:00;18.40;71.30
53962;DHT22;39868;53.398;6.564;2023-06-10T00:02:27;18.40;71.40
53962;DHT22;39868;53.398;6.564;2023-06-10T00:04:55;18.40;71.50
53962;DHT22;39868;53.398;6.564;2023-06-10T00:07:24;18.40;71.40
53962;DHT22;39868;53.398;6.564;2023-06-10T00:09:52;18.40;71.40
53962;DHT22;39868;53.398;6.564;2023-06-10T00:12:19;18.40;71.60
53962;DHT22;39868;53.398;6.564;2023-06-10T00:14:47;18.40;71.30
53962;DHT22;39868;53.398;6.564;2023-06-10T00:17:17;18.30;71.30
53962;DHT22;39868;53.398;6.564;2023-06-10T00:19:45;18.30;71.30
53962;DHT22;39868;53.398;6.564;2023-06-10T00:22:14;18.30;71.20
53962;DHT22;39868;53.398;6.564;2023-06-10T00:24:42;18.30;71.20
53962;DHT22;39868;53.398;6.564;2023-06-10T00:27:09;18.30;71.20
53962;DHT22;39868;53.398;6.564;2023-06-10T00:29:37;18.20;71.10
53962;DHT22;39868;53.398;6.564;2023-06-10T00:32:06;18.20;71.20
53962;DHT22;39868;53.398;6.564;2023-06-10T00:34:34;18.20;71.30
53962;DHT22;39868;53.398;6.564;2023-06-10T00:37:02;18.20;71.30
53962;DHT22;39868;53.398;6.564;2023-06-10T00:39:30;18.10;71.30
53962;DHT22;39868;53.398;6.564;2023-06-10T00:41:57;18.20;71.30
53962;DHT22;39868;53.398;6.564;2023-06-10T00:44:26;18.10;71.20
53962;DHT22;39868;53.398;6.564;2023-06-10T00:46:54;18.10;71.30
53962;DHT22;39868;53.398;6.564;2023-06-10T00:49:23;18.00;71.30
53962;DHT22;39868;53.398;6.564;2023-06-10T00:51:51;18.00;71.30
53962;DHT22;39868;53.398;6.564;2023-06-10T00:54:20;18.00;71.40
53962;DHT22;39868;53.398;6.564;2023-06-10T00:56:48;18.00;71.30
53962;DHT22;39868;53.398;6.564;2023-06-10T00:59:16;17.90;71.30
53962;DHT22;39868;53.398;6.564;2023-06-10T01:01:46;17.90;71.20
53962;DHT22;39868;53.398;6.564;2023-06-10T01:04:14;17.90;71.30
53962;DHT22;39868;53.398;6.564;2023-06-10T01:06:54;17.90;71.30
53962;DHT22;39868;53.398;6.564;2023-06-10T01:12:12;17.80;71.40
53962;DHT22;39868;53.398;6.564;2023-06-10T01:14:41;17.70;71.50
53962;DHT22;39868;53.398;6.564;2023-06-10T01:17:12;17.70;71.40
53962;DHT22;39868;53.398;6.564;2023-06-10T01:19:44;17.70;71.40
53962;DHT22;39868;53.398;6.564;2023-06-10T01:22:12;17.60;71.30
53962;DHT22;39868;53.398;6.564;2023-06-10T01:24:43;17.60;71.40
53962;DHT22;39868;53.398;6.564;2023-06-10T01:27:14;17.60;71.40
53962;DHT22;39868;53.398;6.564;2023-06-10T01:29:48;17.50;71.30
53962;DHT22;39868;53.398;6.564;2023-06-10T01:32:29;17.50;71.40
53962;DHT22;39868;53.398;6.564;2023-06-10T01:34:59;17.50;71.50
53962;DHT22;39868;53.398;6.564;2023-06-10T01:37:28;17.50;71.60
53962;DHT22;39868;53.398;6.564;2023-06-10T01:40:00;17.40;71.50
53962;DHT22;39868;53.398;6.564;2023-06-10T01:42:32;17.40;71.50
53962;DHT22;39868;53.398;6.564;2023-06-10T01:45:02;17.40;71.40
53962;DHT22;39868;53.398;6.564;2023-06-10T01:47:29;17.30;71.40
53962;DHT22;39868;53.398;6.564;2023-06-10T01:49:59;17.30;71.30
53962;DHT22;39868;53.398;6.564;2023-06-10T01:52:27;17.30;71.30
53962;DHT22;39868;53.398;6.564;2023-06-10T01:54:55;17.20;71.30
53962;DHT22;39868;53.398;6.564;2023-06-10T01:57:22;17.20;71.30
53962;DHT22;39868;53.398;6.564;2023-06-10T01:59:49;17.10;71.20
53962;DHT22;39868;53.398;6.564;2023-06-10T02:02:17;17.10;71.20
53962;DHT22;39868;53.398;6.564;2023-06-10T02:04:44;17.10;71.10
53962;DHT22;39868;53.398;6.564;2023-06-10T02:07:12;17.00;71.10
53962;DHT22;39868;53.398;6.564;2023-06-10T02:09:39;16.90;71.00
53962;DHT22;39868;53.398;6.564;2023-06-10T02:12:06;16.90;71.00
53962;DHT22;39868;53.398;6.564;2023-06-10T02:14:34;16.80;71.10
53962;DHT22;39868;53.398;6.564;2023-06-10T02:17:02;16.70;71.20
53962;DHT22;39868;53.398;6.564;2023-06-10T02:19:29;16.70;71.30
53962;DHT22;39868;53.398;6.564;2023-06-10T02:21:57;16.60;71.40
53962;DHT22;39868;53.398;6.564;2023-06-10T02:24:25;16.60;71.50
53962;DHT22;39868;53.398;6.564;2023-06-10T02:26:52;16.50;71.70
53962;DHT22;39868;53.398;6.564;2023-06-10T02:29:21;16.50;71.80
53962;DHT22;39868;53.398;6.564;2023-06-10T02:31:49;16.50;71.90
53962;DHT22;39868;53.398;6.564;2023-06-10T02:34:17;16.40;71.90
53962;DHT22;39868;53.398;6.564;2023-06-10T02:36:44;16.40;72.00
53962;DHT22;39868;53.398;6.564;2023-06-10T02:39:12;16.40;71.90
53962;DHT22;39868;53.398;6.564;2023-06-10T02:41:41;16.30;71.90
53962;DHT22;39868;53.398;6.564;2023-06-10T02:44:08;16.30;71.90
53962;DHT22;39868;53.398;6.564;2023-06-10T02:46:36;16.30;71.90
53962;DHT22;39868;53.398;6.564;2023-06-10T02:49:07;16.20;71.90
53962;DHT22;39868;53.398;6.564;2023-06-10T02:51:35;16.20;72.00
53962;DHT22;39868;53.398;6.564;2023-06-10T02:54:03;16.10;72.00
53962;DHT22;39868;53.398;6.564;2023-06-10T02:56:31;16.10;72.10
53962;DHT22;39868;53.398;6.564;2023-06-10T02:59:02;16.10;72.20
53962;DHT22;39868;53.398;6.564;2023-06-10T03:01:31;16.00;72.90
53962;DHT22;39868;53.398;6.564;2023-06-10T03:04:05;16.00;72.40
53962;DHT22;39868;53.398;6.564;2023-06-10T03:06:34;15.90;72.40
53962;DHT22;39868;53.398;6.564;2023-06-10T03:09:13;15.90;72.50
53962;DHT22;39868;53.398;6.564;2023-06-10T03:11:43;15.90;72.50
53962;DHT22;39868;53.398;6.564;2023-06-10T03:14:10;15.90;72.60
53962;DHT22;39868;53.398;6.564;2023-06-10T03:16:38;15.80;72.60
53962;DHT22;39868;53.398;6.564;2023-06-10T03:19:10;15.80;72.70
53962;DHT22;39868;53.398;6.564;2023-06-10T03:21:44;15.80;72.70
53962;DHT22;39868;53.398;6.564;2023-06-10T03:24:13;15.80;73.00
53962;DHT22;39868;53.398;6.564;2023-06-10T03:26:41;15.70;73.00
53962;DHT22;39868;53.398;6.564;2023-06-10T03:29:09;15.80;73.10
53962;DHT22;39868;53.398;6.564;2023-06-10T03:31:36;15.70;73.20
53962;DHT22;39868;53.398;6.564;2023-06-10T03:34:06;15.70;73.50
53962;DHT22;39868;53.398;6.564;2023-06-10T03:36:34;15.80;73.60
53962;DHT22;39868;53.398;6.564;2023-06-10T03:39:05;15.70;73.70
53962;DHT22;39868;53.398;6.564;2023-06-10T03:41:33;15.80;73.90
53962;DHT22;39868;53.398;6.564;2023-06-10T03:44:01;15.80;74.00
53962;DHT22;39868;53.398;6.564;2023-06-10T03:46:28;15.80;74.00
53962;DHT22;39868;53.398;6.564;2023-06-10T03:48:55;15.80;74.00
53962;DHT22;39868;53.398;6.564;2023-06-10T03:51:23;15.80;74.10
53962;DHT22;39868;53.398;6.564;2023-06-10T03:53:51;15.90;74.20
53962;DHT22;39868;53.398;6.564;2023-06-10T03:56:18;15.90;74.30
53962;DHT22;39868;53.398;6.564;2023-06-10T03:58:45;15.90;74.20
53962;DHT22;39868;53.398;6.564;2023-06-10T04:01:14;15.90;74.30
53962;DHT22;39868;53.398;6.564;2023-06-10T04:03:41;15.90;74.30
53962;DHT22;39868;53.398;6.564;2023-06-10T04:06:11;16.00;74.40
53962;DHT22;39868;53.398;6.564;2023-06-10T04:08:38;16.00;74.40
53962;DHT22;39868;53.398;6.564;2023-06-10T04:11:06;16.00;74.50
53962;DHT22;39868;53.398;6.564;2023-06-10T04:13:34;16.00;74.70
53962;DHT22;39868;53.398;6.564;2023-06-10T04:16:02;16.00;74.80
53962;DHT22;39868;53.398;6.564;2023-06-10T04:18:29;16.10;75.20
53962;DHT22;39868;53.398;6.564;2023-06-10T04:21:02;16.10;75.40
53962;DHT22;39868;53.398;6.564;2023-06-10T04:23:31;16.10;75.60
53962;DHT22;39868;53.398;6.564;2023-06-10T04:25:59;16.20;75.80
53962;DHT22;39868;53.398;6.564;2023-06-10T04:28:26;16.30;76.00
53962;DHT22;39868;53.398;6.564;2023-06-10T04:30:55;16.30;76.10
53962;DHT22;39868;53.398;6.564;2023-06-10T04:33:22;16.40;76.30
53962;DHT22;39868;53.398;6.564;2023-06-10T04:35:50;16.50;76.40
53962;DHT22;39868;53.398;6.564;2023-06-10T04:38:21;16.50;76.50
53962;DHT22;39868;53.398;6.564;2023-06-10T04:40:48;16.60;76.50
53962;DHT22;39868;53.398;6.564;2023-06-10T04:43:18;16.70;76.60
53962;DHT22;39868;53.398;6.564;2023-06-10T04:45:46;16.70;76.50
53962;DHT22;39868;53.398;6.564;2023-06-10T04:48:14;16.80;76.50
53962;DHT22;39868;53.398;6.564;2023-06-10T04:50:42;16.90;76.70
53962;DHT22;39868;53.398;6.564;2023-06-10T04:53:10;16.90;76.50
53962;DHT22;39868;53.398;6.564;2023-06-10T04:55:39;17.00;76.60
53962;DHT22;39868;53.398;6.564;2023-06-10T04:58:07;17.10;76.60
53962;DHT22;39868;53.398;6.564;2023-06-10T05:00:34;17.10;76.60
53962;DHT22;39868;53.398;6.564;2023-06-10T05:03:02;17.20;76.60
53962;DHT22;39868;53.398;6.564;2023-06-10T05:05:30;17.30;76.60
53962;DHT22;39868;53.398;6.564;2023-06-10T05:07:57;17.30;76.50
53962;DHT22;39868;53.398;6.564;2023-06-10T05:10:25;17.40;76.50
53962;DHT22;39868;53.398;6.564;2023-06-10T05:12:52;17.40;76.50
53962;DHT22;39868;53.398;6.564;2023-06-10T05:15:20;17.50;76.50
53962;DHT22;39868;53.398;6.564;2023-06-10T05:17:47;17.50;76.90
53962;DHT22;39868;53.398;6.564;2023-06-10T05:20:15;17.60;76.40
53962;DHT22;39868;53.398;6.564;2023-06-10T05:22:42;17.60;76.40
53962;DHT22;39868;53.398;6.564;2023-06-10T05:25:09;17.70;76.30
53962;DHT22;39868;53.398;6.564;2023-06-10T05:27:37;17.70;76.30
53962;DHT22;39868;53.398;6.564;2023-06-10T05:30:07;17.80;76.30
53962;DHT22;39868;53.398;6.564;2023-06-10T05:32:34;17.80;76.30
53962;DHT22;39868;53.398;6.564;2023-06-10T05:35:05;17.90;76.20
53962;DHT22;39868;53.398;6.564;2023-06-10T05:37:34;17.90;76.20
53962;DHT22;39868;53.398;6.564;2023-06-10T05:40:04;18.00;76.20
53962;DHT22;39868;53.398;6.564;2023-06-10T05:42:32;18.00;76.10
53962;DHT22;39868;53.398;6.564;2023-06-10T05:44:59;18.10;76.30
53962;DHT22;39868;53.398;6.564;2023-06-10T05:47:27;18.10;76.20
53962;DHT22;39868;53.398;6.564;2023-06-10T05:49:54;18.20;76.20
53962;DHT22;39868;53.398;6.564;2023-06-10T05:52:22;18.20;76.20
53962;DHT22;39868;53.398;6.564;2023-06-10T05:54:50;18.30;76.20
53962;DHT22;39868;53.398;6.564;2023-06-10T05:57:17;18.30;76.20
53962;DHT22;39868;53.398;6.564;2023-06-10T05:59:45;18.30;76.20
53962;DHT22;39868;53.398;6.564;2023-06-10T06:02:12;18.40;76.10
53962;DHT22;39868;53.398;6.564;2023-06-10T06:04:39;18.50;76.00
53962;DHT22;39868;53.398;6.564;2023-06-10T06:07:07;18.50;76.00
53962;DHT22;39868;53.398;6.564;2023-06-10T06:09:34;18.60;76.00
53962;DHT22;39868;53.398;6.564;2023-06-10T06:12:02;18.60;75.90
53962;DHT22;39868;53.398;6.564;2023-06-10T06:14:31;18.70;75.80
53962;DHT22;39868;53.398;6.564;2023-06-10T06:16:59;18.70;75.80
53962;DHT22;39868;53.398;6.564;2023-06-10T06:19:26;18.80;75.80
53962;DHT22;39868;53.398;6.564;2023-06-10T06:21:53;18.80;75.70
53962;DHT22;39868;53.398;6.564;2023-06-10T06:24:21;18.90;75.60
53962;DHT22;39868;53.398;6.564;2023-06-10T06:26:49;18.90;75.60
53962;DHT22;39868;53.398;6.564;2023-06-10T06:29:16;19.00;75.60
53962;DHT22;39868;53.398;6.564;2023-06-10T06:31:44;19.00;75.60
53962;DHT22;39868;53.398;6.564;2023-06-10T06:34:11;19.00;75.70
53962;DHT22;39868;53.398;6.564;2023-06-10T06:36:42;19.10;75.60
53962;DHT22;39868;53.398;6.564;2023-06-10T06:39:09;19.20;75.50
53962;DHT22;39868;53.398;6.564;2023-06-10T06:41:37;19.20;75.40
53962;DHT22;39868;53.398;6.564;2023-06-10T06:44:04;19.30;75.40
53962;DHT22;39868;53.398;6.564;2023-06-10T06:46:37;19.30;75.40
53962;DHT22;39868;53.398;6.564;2023-06-10T06:49:04;19.40;75.40
53962;DHT22;39868;53.398;6.564;2023-06-10T06:51:32;19.50;75.20
53962;DHT22;39868;53.398;6.564;2023-06-10T06:53:59;19.50;75.20
53962;DHT22;39868;53.398;6.564;2023-06-10T06:56:26;19.60;75.00
53962;DHT22;39868;53.398;6.564;2023-06-10T06:58:55;19.60;74.90
53962;DHT22;39868;53.398;6.564;2023-06-10T07:01:24;19.70;74.90
53962;DHT22;39868;53.398;6.564;2023-06-10T07:03:52;19.80;74.80
53962;DHT22;39868;53.398;6.564;2023-06-10T07:06:19;19.80;74.90
53962;DHT22;39868;53.398;6.564;2023-06-10T07:08:46;19.90;74.70
53962;DHT22;39868;53.398;6.564;2023-06-10T07:11:14;19.90;74.70
53962;DHT22;39868;53.398;6.564;2023-06-10T07:13:41;20.00;74.70
53962;DHT22;39868;53.398;6.564;2023-06-10T07:16:09;20.00;74.90
53962;DHT22;39868;53.398;6.564;2023-06-10T07:18:36;20.10;74.60
53962;DHT22;39868;53.398;6.564;2023-06-10T07:21:04;20.20;74.70
53962;DHT22;39868;53.398;6.564;2023-06-10T07:23:31;20.30;75.00
53962;DHT22;39868;53.398;6.564;2023-06-10T07:25:58;20.40;75.20
53962;DHT22;39868;53.398;6.564;2023-06-10T07:28:26;20.40;74.80
53962;DHT22;39868;53.398;6.564;2023-06-10T07:30:54;20.50;75.00
53962;DHT22;39868;53.398;6.564;2023-06-10T07:33:22;20.60;74.90
53962;DHT22;39868;53.398;6.564;2023-06-10T07:35:49;20.70;75.00
53962;DHT22;39868;53.398;6.564;2023-06-10T07:38:17;20.80;74.40
53962;DHT22;39868;53.398;6.564;2023-06-10T07:40:45;20.80;74.00
53962;DHT22;39868;53.398;6.564;2023-06-10T07:43:14;20.90;73.70
53962;DHT22;39868;53.398;6.564;2023-06-10T07:45:42;21.00;73.90
53962;DHT22;39868;53.398;6.564;2023-06-10T07:48:10;21.00;73.70
53962;DHT22;39868;53.398;6.564;2023-06-10T07:50:37;21.10;73.40
53962;DHT22;39868;53.398;6.564;2023-06-10T07:53:05;21.20;73.30
53962;DHT22;39868;53.398;6.564;2023-06-10T07:55:32;21.20;73.20
53962;DHT22;39868;53.398;6.564;2023-06-10T07:58:00;21.30;73.20
53962;DHT22;39868;53.398;6.564;2023-06-10T08:00:27;21.30;73.10
53962;DHT22;39868;53.398;6.564;2023-06-10T08:02:55;21.40;72.80
53962;DHT22;39868;53.398;6.564;2023-06-10T08:05:23;21.50;72.90
53962;DHT22;39868;53.398;6.564;2023-06-10T08:07:50;21.50;73.00
53962;DHT22;39868;53.398;6.564;2023-06-10T08:10:18;21.60;73.30
53962;DHT22;39868;53.398;6.564;2023-06-10T08:12:45;21.60;72.80
53962;DHT22;39868;53.398;6.564;2023-06-10T08:15:13;21.70;72.60
53962;DHT22;39868;53.398;6.564;2023-06-10T08:17:40;21.70;72.60
53962;DHT22;39868;53.398;6.564;2023-06-10T08:20:08;21.80;72.70
53962;DHT22;39868;53.398;6.564;2023-06-10T08:22:35;21.90;72.80
53962;DHT22;39868;53.398;6.564;2023-06-10T08:25:02;21.90;72.70
53962;DHT22;39868;53.398;6.564;2023-06-10T08:27:30;22.00;72.20
53962;DHT22;39868;53.398;6.564;2023-06-10T08:29:57;22.10;71.90
53962;DHT22;39868;53.398;6.564;2023-06-10T08:32:27;22.10;72.20
53962;DHT22;39868;53.398;6.564;2023-06-10T08:34:55;22.20;71.80
53962;DHT22;39868;53.398;6.564;2023-06-10T08:37:24;22.30;72.20
53962;DHT22;39868;53.398;6.564;2023-06-10T08:39:51;22.40;71.90
53962;DHT22;39868;53.398;6.564;2023-06-10T08:42:23;22.40;71.40
53962;DHT22;39868;53.398;6.564;2023-06-10T08:44:55;22.50;70.70
53962;DHT22;39868;53.398;6.564;2023-06-10T08:47:24;22.60;70.70
53962;DHT22;39868;53.398;6.564;2023-06-10T08:49:53;22.60;71.00
53962;DHT22;39868;53.398;6.564;2023-06-10T08:52:26;22.70;70.60
53962;DHT22;39868;53.398;6.564;2023-06-10T08:55:00;22.70;70.60
53962;DHT22;39868;53.398;6.564;2023-06-10T08:57:30;22.80;70.90
53962;DHT22;39868;53.398;6.564;2023-06-10T08:59:58;22.90;70.30
53962;DHT22;39868;53.398;6.564;2023-06-10T09:02:25;23.00;70.00
53962;DHT22;39868;53.398;6.564;2023-06-10T09:04:56;23.00;69.90
53962;DHT22;39868;53.398;6.564;2023-06-10T09:07:24;23.00;69.30
53962;DHT22;39868;53.398;6.564;2023-06-10T09:09:53;23.10;69.00
53962;DHT22;39868;53.398;6.564;2023-06-10T09:12:21;23.10;69.20
53962;DHT22;39868;53.398;6.564;2023-06-10T09:14:49;23.20;69.30
53962;DHT22;39868;53.398;6.564;2023-06-10T09:17:17;23.20;69.50
53962;DHT22;39868;53.398;6.564;2023-06-10T09:19:45;23.30;69.30
53962;DHT22;39868;53.398;6.564;2023-06-10T09:22:13;23.30;69.60
53962;DHT22;39868;53.398;6.564;2023-06-10T09:24:41;23.30;69.50
53962;DHT22;39868;53.398;6.564;2023-06-10T09:27:09;23.40;69.40
53962;DHT22;39868;53.398;6.564;2023-06-10T09:30:06;23.50;68.70
53962;DHT22;39868;53.398;6.564;2023-06-10T09:32:38;23.50;69.60
53962;DHT22;39868;53.398;6.564;2023-06-10T09:35:09;23.50;68.30
53962;DHT22;39868;53.398;6.564;2023-06-10T09:37:38;23.60;68.70
53962;DHT22;39868;53.398;6.564;2023-06-10T09:40:07;23.60;68.60
53962;DHT22;39868;53.398;6.564;2023-06-10T09:42:37;23.70;68.60
53962;DHT22;39868;53.398;6.564;2023-06-10T09:45:06;23.70;68.60
53962;DHT22;39868;53.398;6.564;2023-06-10T09:47:34;23.80;68.30
53962;DHT22;39868;53.398;6.564;2023-06-10T09:50:02;23.90;68.50
53962;DHT22;39868;53.398;6.564;2023-06-10T09:52:30;23.90;68.30
53962;DHT22;39868;53.398;6.564;2023-06-10T09:55:02;24.00;68.00
53962;DHT22;39868;53.398;6.564;2023-06-10T09:57:33;24.00;67.70
53962;DHT22;39868;53.398;6.564;2023-06-10T10:00:07;24.10;68.00
53962;DHT22;39868;53.398;6.564;2023-06-10T10:02:52;24.10;68.50
53962;DHT22;39868;53.398;6.564;2023-06-10T10:05:22;24.20;68.40
53962;DHT22;39868;53.398;6.564;2023-06-10T10:07:50;24.30;68.80
53962;DHT22;39868;53.398;6.564;2023-06-10T10:10:20;24.30;68.50
53962;DHT22;39868;53.398;6.564;2023-06-10T10:12:53;24.30;68.30
53962;DHT22;39868;53.398;6.564;2023-06-10T10:15:25;24.40;67.80
53962;DHT22;39868;53.398;6.564;2023-06-10T10:18:09;24.40;68.30
53962;DHT22;39868;53.398;6.564;2023-06-10T10:20:47;24.50;68.50
53962;DHT22;39868;53.398;6.564;2023-06-10T10:23:23;24.50;68.20
53962;DHT22;39868;53.398;6.564;2023-06-10T10:25:53;24.60;68.20
53962;DHT22;39868;53.398;6.564;2023-06-10T10:28:24;24.60;68.10
53962;DHT22;39868;53.398;6.564;2023-06-10T10:30:59;24.70;67.70
53962;DHT22;39868;53.398;6.564;2023-06-10T10:35:57;24.80;67.40
53962;DHT22;39868;53.398;6.564;2023-06-10T10:38:25;24.80;67.60
53962;DHT22;39868;53.398;6.564;2023-06-10T10:40:53;24.90;67.10
53962;DHT22;39868;53.398;6.564;2023-06-10T10:43:23;24.90;67.40
53962;DHT22;39868;53.398;6.564;2023-06-10T10:46:00;24.90;67.00
53962;DHT22;39868;53.398;6.564;2023-06-10T10:48:37;25.00;66.30
53962;DHT22;39868;53.398;6.564;2023-06-10T10:51:05;25.00;66.20
53962;DHT22;39868;53.398;6.564;2023-06-10T10:53:33;25.00;66.20
53962;DHT22;39868;53.398;6.564;2023-06-10T10:56:05;25.00;66.10
53962;DHT22;39868;53.398;6.564;2023-06-10T10:58:34;25.10;66.20
53962;DHT22;39868;53.398;6.564;2023-06-10T11:01:15;25.10;66.60
53962;DHT22;39868;53.398;6.564;2023-06-10T11:03:46;25.10;66.50
53962;DHT22;39868;53.398;6.564;2023-06-10T11:06:16;25.10;66.80
53962;DHT22;39868;53.398;6.564;2023-06-10T11:11:23;25.10;67.20
53962;DHT22;39868;53.398;6.564;2023-06-10T11:16:41;25.20;67.40
53962;DHT22;39868;53.398;6.564;2023-06-10T11:19:09;25.20;67.40
53962;DHT22;39868;53.398;6.564;2023-06-10T11:22:01;25.20;67.00
53962;DHT22;39868;53.398;6.564;2023-06-10T11:24:31;25.20;67.40
53962;DHT22;39868;53.398;6.564;2023-06-10T11:27:19;25.10;67.20
53962;DHT22;39868;53.398;6.564;2023-06-10T11:32:33;25.10;67.40
53962;DHT22;39868;53.398;6.564;2023-06-10T11:35:05;25.00;67.30
53962;DHT22;39868;53.398;6.564;2023-06-10T11:37:35;25.00;67.00
53962;DHT22;39868;53.398;6.564;2023-06-10T11:40:03;25.00;67.20
53962;DHT22;39868;53.398;6.564;2023-06-10T11:42:31;25.00;67.20
53962;DHT22;39868;53.398;6.564;2023-06-10T11:44:58;24.90;66.90
53962;DHT22;39868;53.398;6.564;2023-06-10T11:47:27;24.90;66.90
53962;DHT22;39868;53.398;6.564;2023-06-10T11:49:56;24.80;66.70
53962;DHT22;39868;53.398;6.564;2023-06-10T11:52:30;24.80;67.00
53962;DHT22;39868;53.398;6.564;2023-06-10T11:55:00;24.80;67.30
53962;DHT22;39868;53.398;6.564;2023-06-10T11:57:28;24.70;67.40
53962;DHT22;39868;53.398;6.564;2023-06-10T11:59:55;24.70;67.20
53962;DHT22;39868;53.398;6.564;2023-06-10T12:02:22;24.70;67.00
53962;DHT22;39868;53.398;6.564;2023-06-10T12:04:50;24.70;67.50
53962;DHT22;39868;53.398;6.564;2023-06-10T12:07:18;24.70;67.30
53962;DHT22;39868;53.398;6.564;2023-06-10T12:09:59;24.70;67.20
53962;DHT22;39868;53.398;6.564;2023-06-10T12:12:44;24.70;67.00
53962;DHT22;39868;53.398;6.564;2023-06-10T12:15:23;24.70;67.00
53962;DHT22;39868;53.398;6.564;2023-06-10T12:17:52;24.70;67.50
53962;DHT22;39868;53.398;6.564;2023-06-10T12:20:32;24.70;67.20
53962;DHT22;39868;53.398;6.564;2023-06-10T12:23:09;24.70;66.50
53962;DHT22;39868;53.398;6.564;2023-06-10T12:25:37;24.70;66.50
53962;DHT22;39868;53.398;6.564;2023-06-10T12:28:10;24.70;66.90
53962;DHT22;39868;53.398;6.564;2023-06-10T12:30:37;24.70;67.20
53962;DHT22;39868;53.398;6.564;2023-06-10T12:33:16;24.70;67.50
53962;DHT22;39868;53.398;6.564;2023-06-10T12:35:51;24.80;67.40
53962;DHT22;39868;53.398;6.564;2023-06-10T12:38:26;24.80;67.20
53962;DHT22;39868;53.398;6.564;2023-06-10T12:41:02;24.90;66.90
53962;DHT22;39868;53.398;6.564;2023-06-10T12:43:33;24.90;66.20
53962;DHT22;39868;53.398;6.564;2023-06-10T12:46:09;24.90;66.80
53962;DHT22;39868;53.398;6.564;2023-06-10T12:48:49;24.90;66.10
53962;DHT22;39868;53.398;6.564;2023-06-10T12:51:18;24.90;65.80
53962;DHT22;39868;53.398;6.564;2023-06-10T12:53:46;25.00;65.70
53962;DHT22;39868;53.398;6.564;2023-06-10T12:56:14;25.00;66.00
53962;DHT22;39868;53.398;6.564;2023-06-10T12:58:41;25.00;66.10
53962;DHT22;39868;53.398;6.564;2023-06-10T13:01:12;25.00;66.10
53962;DHT22;39868;53.398;6.564;2023-06-10T13:03:40;25.00;65.80
53962;DHT22;39868;53.398;6.564;2023-06-10T13:06:07;25.00;65.30
53962;DHT22;39868;53.398;6.564;2023-06-10T13:08:35;25.00;65.60
53962;DHT22;39868;53.398;6.564;2023-06-10T13:11:02;25.00;65.60
53962;DHT22;39868;53.398;6.564;2023-06-10T13:13:30;25.00;66.00
53962;DHT22;39868;53.398;6.564;2023-06-10T13:15:57;25.10;65.90
53962;DHT22;39868;53.398;6.564;2023-06-10T13:18:24;25.10;66.30
53962;DHT22;39868;53.398;6.564;2023-06-10T13:20:53;25.10;66.10
53962;DHT22;39868;53.398;6.564;2023-06-10T13:23:20;25.20;66.20
53962;DHT22;39868;53.398;6.564;2023-06-10T13:25:47;25.20;66.30
53962;DHT22;39868;53.398;6.564;2023-06-10T13:28:15;25.30;66.00
53962;DHT22;39868;53.398;6.564;2023-06-10T13:30:42;25.30;65.70
53962;DHT22;39868;53.398;6.564;2023-06-10T13:33:10;25.40;65.10
53962;DHT22;39868;53.398;6.564;2023-06-10T13:35:38;25.40;65.60
53962;DHT22;39868;53.398;6.564;2023-06-10T13:38:05;25.50;65.30
53962;DHT22;39868;53.398;6.564;2023-06-10T13:40:34;25.50;65.00
53962;DHT22;39868;53.398;6.564;2023-06-10T13:43:01;25.50;65.80
53962;DHT22;39868;53.398;6.564;2023-06-10T13:45:29;25.50;64.80
53962;DHT22;39868;53.398;6.564;2023-06-10T13:47:57;25.60;65.50
53962;DHT22;39868;53.398;6.564;2023-06-10T13:50:24;25.60;64.90
53962;DHT22;39868;53.398;6.564;2023-06-10T13:52:52;25.60;64.30
53962;DHT22;39868;53.398;6.564;2023-06-10T13:55:19;25.60;64.80
53962;DHT22;39868;53.398;6.564;2023-06-10T13:57:48;25.60;64.80
53962;DHT22;39868;53.398;6.564;2023-06-10T14:00:16;25.70;64.30
53962;DHT22;39868;53.398;6.564;2023-06-10T14:02:43;25.70;64.40
53962;DHT22;39868;53.398;6.564;2023-06-10T14:05:11;25.70;64.40
53962;DHT22;39868;53.398;6.564;2023-06-10T14:07:39;25.70;64.70
53962;DHT22;39868;53.398;6.564;2023-06-10T14:10:08;25.70;64.90
53962;DHT22;39868;53.398;6.564;2023-06-10T14:12:36;25.70;64.60
53962;DHT22;39868;53.398;6.564;2023-06-10T14:15:04;25.70;64.60
53962;DHT22;39868;53.398;6.564;2023-06-10T14:17:32;25.70;64.50
53962;DHT22;39868;53.398;6.564;2023-06-10T14:19:59;25.70;64.50
53962;DHT22;39868;53.398;6.564;2023-06-10T14:22:26;25.70;64.60
53962;DHT22;39868;53.398;6.564;2023-06-10T14:24:54;25.80;64.40
53962;DHT22;39868;53.398;6.564;2023-06-10T14:27:21;25.80;64.60
53962;DHT22;39868;53.398;6.564;2023-06-10T14:29:48;25.80;64.20
53962;DHT22;39868;53.398;6.564;2023-06-10T14:32:16;25.80;64.40
53962;DHT22;39868;53.398;6.564;2023-06-10T14:34:43;25.80;64.30
53962;DHT22;39868;53.398;6.564;2023-06-10T14:37:11;25.90;64.30
53962;DHT22;39868;53.398;6.564;2023-06-10T14:39:39;25.90;64.10
53962;DHT22;39868;53.398;6.564;2023-06-10T14:42:06;25.90;63.70
53962;DHT22;39868;53.398;6.564;2023-06-10T14:44:34;25.90;63.90
53962;DHT22;39868;53.398;6.564;2023-06-10T14:47:01;25.90;64.00
53962;DHT22;39868;53.398;6.564;2023-06-10T14:49:29;25.90;64.20
53962;DHT22;39868;53.398;6.564;2023-06-10T14:51:57;25.90;64.30
53962;DHT22;39868;53.398;6.564;2023-06-10T14:54:24;25.90;64.30
53962;DHT22;39868;53.398;6.564;2023-06-10T14:56:51;25.90;64.50
53962;DHT22;39868;53.398;6.564;2023-06-10T14:59:19;25.90;64.80
53962;DHT22;39868;53.398;6.564;2023-06-10T15:01:47;26.00;65.00
53962;DHT22;39868;53.398;6.564;2023-06-10T15:04:14;26.00;64.60
53962;DHT22;39868;53.398;6.564;2023-06-10T15:06:42;26.00;64.60
53962;DHT22;39868;53.398;6.564;2023-06-10T15:09:10;26.10;64.70
53962;DHT22;39868;53.398;6.564;2023-06-10T15:11:37;26.10;64.80
53962;DHT22;39868;53.398;6.564;2023-06-10T15:14:05;26.20;64.40
53962;DHT22;39868;53.398;6.564;2023-06-10T15:16:32;26.30;64.20
53962;DHT22;39868;53.398;6.564;2023-06-10T15:19:00;26.30;64.10
53962;DHT22;39868;53.398;6.564;2023-06-10T15:21:27;26.30;64.20
53962;DHT22;39868;53.398;6.564;2023-06-10T15:23:55;26.30;64.40
53962;DHT22;39868;53.398;6.564;2023-06-10T15:26:22;26.40;64.10
53962;DHT22;39868;53.398;6.564;2023-06-10T15:28:50;26.40;64.20
53962;DHT22;39868;53.398;6.564;2023-06-10T15:31:17;26.50;64.10
53962;DHT22;39868;53.398;6.564;2023-06-10T15:33:45;26.50;64.10
53962;DHT22;39868;53.398;6.564;2023-06-10T15:36:13;26.50;64.00
53962;DHT22;39868;53.398;6.564;2023-06-10T15:38:41;26.50;63.80
53962;DHT22;39868;53.398;6.564;2023-06-10T15:41:08;26.60;63.60
53962;DHT22;39868;53.398;6.564;2023-06-10T15:43:36;26.60;63.80
53962;DHT22;39868;53.398;6.564;2023-06-10T15:46:03;26.60;63.50
53962;DHT22;39868;53.398;6.564;2023-06-10T15:48:32;26.60;63.60
53962;DHT22;39868;53.398;6.564;2023-06-10T15:50:59;26.60;63.30
53962;DHT22;39868;53.398;6.564;2023-06-10T15:53:26;26.60;63.50